Time,TemperatureF,DewpointF,PressureIn,WindDirection,WindDirectionDegrees,WindSpeedMPH,WindSpeedGustMPH,Humidity,HourlyPrecipIn,Conditions,Clouds,dailyrainin,SoftwareType,DateUTC
2013-01-06 00:00:00,49.9,35.6,-100.00,NE,45,1.1,4.5,57,0.00,,,0.00,,2013-01-06 06:00:00,
2013-01-06 00:01:00,49.9,35.6,-100.00,NE,45,1.3,4.5,57,0.00,,,0.00,,2013-01-06 06:01:00,
2013-01-06 00:06:00,50.1,35.6,-100.00,NW,315,2.2,5.0,57,0.00,,,0.00,,2013-01-06 06:06:00,
2013-01-06 00:11:00,50.1,35.0,-100.00,NNW,337,2.7,5.0,55,0.00,,,0.00,,2013-01-06 06:11:00,
2013-01-06 00:16:00,50.3,35.2,-100.00,NNW,337,2.8,4.8,55,0.00,,,0.00,,2013-01-06 06:16:00,
2013-01-06 00:21:00,50.5,34.9,-100.00,NW,315,2.5,5.3,54,0.00,,,0.00,,2013-01-06 06:21:00,
2013-01-06 00:26:00,50.5,34.9,-100.00,North,0,2.5,5.3,54,0.00,,,0.00,,2013-01-06 06:26:00,
2013-01-06 00:31:00,50.5,34.9,-100.00,North,0,2.3,4.7,54,0.00,,,0.00,,2013-01-06 06:31:00,
2013-01-06 00:36:00,50.6,35.0,-100.00,NNW,337,2.2,5.1,54,0.00,,,0.00,,2013-01-06 06:36:00,
2013-01-06 00:41:00,50.6,35.0,-100.00,NNW,337,1.5,3.3,54,0.00,,,0.00,,2013-01-06 06:41:00,
2013-01-06 00:46:00,50.6,35.0,-100.00,North,0,1.6,3.3,54,0.00,,,0.00,,2013-01-06 06:46:00,
2013-01-06 00:51:00,50.6,34.9,-100.00,NNW,337,2.1,4.7,54,0.00,,,0.00,,2013-01-06 06:51:00,
2013-01-06 00:56:00,50.7,35.1,-100.00,WNW,292,2.5,4.7,54,0.00,,,0.00,,2013-01-06 06:56:00,
2013-01-06 01:01:00,50.7,35.1,-100.00,WNW,292,2.1,3.7,54,0.00,,,0.00,,2013-01-06 07:01:00,
2013-01-06 01:06:00,50.7,35.1,-100.00,NW,315,2.1,4.6,54,0.00,,,0.00,,2013-01-06 07:06:00,
2013-01-06 01:11:00,50.7,35.1,-100.00,NNW,337,2.1,5.3,54,0.00,,,0.00,,2013-01-06 07:11:00,
2013-01-06 01:16:00,50.8,35.1,-100.00,North,0,1.9,5.3,54,0.00,,,0.00,,2013-01-06 07:16:00,
2013-01-06 01:21:00,50.7,35.2,-100.00,NNW,337,1.6,3.4,55,0.00,,,0.00,,2013-01-06 07:21:00,
2013-01-06 01:26:00,50.7,35.1,-100.00,NW,315,2.3,5.3,54,0.00,,,0.00,,2013-01-06 07:26:00,
2013-01-06 01:31:00,50.7,35.2,-100.00,NW,315,2.8,5.3,55,0.00,,,0.00,,2013-01-06 07:31:00,
2013-01-06 01:36:00,50.7,35.9,-100.00,North,0,2.0,4.2,56,0.00,,,0.00,,2013-01-06 07:36:00,
2013-01-06 01:41:00,50.6,35.8,-100.00,North,0,1.6,3.6,56,0.00,,,0.00,,2013-01-06 07:41:00,
2013-01-06 01:47:00,50.6,35.9,-100.00,NW,315,2.2,4.1,56,0.00,,,0.00,,2013-01-06 07:47:00,
2013-01-06 01:52:00,50.5,35.7,-100.00,North,0,2.2,3.4,56,0.00,,,0.00,,2013-01-06 07:52:00,
2013-01-06 01:57:00,50.5,36.1,-100.00,NNE,22,2.0,3.4,57,0.00,,,0.00,,2013-01-06 07:57:00,
2013-01-06 02:02:00,50.3,36.0,-100.00,NNE,22,2.2,4.3,57,0.00,,,0.00,,2013-01-06 08:02:00,
2013-01-06 02:07:00,50.3,35.9,-100.00,North,0,2.5,4.7,57,0.00,,,0.00,,2013-01-06 08:07:00,
2013-01-06 02:12:00,50.3,36.0,-100.00,NNW,337,2.5,4.7,57,0.00,,,0.00,,2013-01-06 08:12:00,
2013-01-06 02:17:00,50.3,36.2,-100.00,NNW,337,2.2,4.2,57,0.00,,,0.00,,2013-01-06 08:17:00,
2013-01-06 02:22:00,50.3,36.4,-100.00,North,0,2.1,4.0,58,0.00,,,0.00,,2013-01-06 08:22:00,
2013-01-06 02:27:00,50.2,35.9,-100.00,NW,315,2.7,5.5,57,0.00,,,0.00,,2013-01-06 08:27:00,
2013-01-06 02:32:00,50.2,36.3,-100.00,NW,315,2.8,5.5,58,0.00,,,0.00,,2013-01-06 08:32:00,
2013-01-06 02:37:00,50.2,36.2,-100.00,NNW,337,2.3,4.1,58,0.00,,,0.00,,2013-01-06 08:37:00,
2013-01-06 02:42:00,50.2,36.7,-100.00,NNW,337,2.4,4.2,59,0.00,,,0.00,,2013-01-06 08:42:00,
2013-01-06 02:47:00,50.1,36.4,-100.00,NNE,22,2.2,5.1,58,0.00,,,0.00,,2013-01-06 08:47:00,
2013-01-06 02:52:00,50.2,37.1,-100.00,ENE,67,2.5,5.2,60,0.00,,,0.00,,2013-01-06 08:52:00,
2013-01-06 02:57:00,50.1,37.2,-100.00,East,90,2.1,4.7,60,0.00,,,0.00,,2013-01-06 08:57:00,
2013-01-06 03:02:00,50.0,36.9,-100.00,NE,45,2.2,4.5,60,0.00,,,0.00,,2013-01-06 09:02:00,
2013-01-06 03:07:00,49.9,36.8,-100.00,NE,45,2.6,5.2,60,0.00,,,0.00,,2013-01-06 09:07:00,
2013-01-06 03:12:00,49.8,37.0,-100.00,NE,45,3.1,5.3,61,0.00,,,0.00,,2013-01-06 09:12:00,
2013-01-06 03:17:00,49.7,38.1,-100.00,NE,45,2.4,5.3,63,0.00,,,0.00,,2013-01-06 09:17:00,
2013-01-06 03:22:00,49.4,39.2,-100.00,ENE,67,2.1,4.9,67,0.00,,,0.00,,2013-01-06 09:22:00,
2013-01-06 03:27:00,49.1,39.0,-100.00,NE,45,2.0,4.4,67,0.00,,,0.00,,2013-01-06 09:27:00,
2013-01-06 03:32:00,49.0,39.0,-100.00,NNE,22,2.7,4.9,68,0.00,,,0.00,,2013-01-06 09:32:00,
2013-01-06 03:37:00,48.9,39.4,-100.00,ENE,67,2.3,4.9,69,0.00,,,0.00,,2013-01-06 09:37:00,
2013-01-06 03:42:00,48.9,39.4,-100.00,NE,45,2.0,3.9,69,0.00,,,0.00,,2013-01-06 09:42:00,
2013-01-06 03:48:00,48.9,39.4,-100.00,North,0,2.5,5.1,69,0.00,,,0.00,,2013-01-06 09:48:00,
2013-01-06 03:53:00,48.8,39.2,-100.00,North,0,3.1,6.5,69,0.00,,,0.00,,2013-01-06 09:53:00,
2013-01-06 03:58:00,48.8,39.3,-100.00,North,0,3.3,5.3,69,0.00,,,0.00,,2013-01-06 09:58:00,
2013-01-06 04:03:00,48.7,39.6,-100.00,NE,45,3.1,5.6,70,0.00,,,0.00,,2013-01-06 10:03:00,
2013-01-06 04:08:00,48.3,40.0,-100.00,NNE,22,3.1,5.6,72,0.00,,,0.00,,2013-01-06 10:08:00,
2013-01-06 04:13:00,48.2,40.6,-100.00,NNE,22,3.3,5.6,74,0.00,,,0.00,,2013-01-06 10:13:00,
2013-01-06 04:18:00,48.2,40.4,-100.00,NNE,22,3.6,6.2,74,0.00,,,0.00,,2013-01-06 10:18:00,
2013-01-06 04:23:00,48.2,40.4,-100.00,NNE,22,3.5,6.2,74,0.00,,,0.00,,2013-01-06 10:23:00,
2013-01-06 04:28:00,48.2,40.8,-100.00,NE,45,2.9,5.6,75,0.00,,,0.00,,2013-01-06 10:28:00,
2013-01-06 04:33:00,48.2,40.7,-100.00,ENE,67,2.5,5.2,74,0.00,,,0.00,,2013-01-06 10:33:00,
2013-01-06 04:38:00,48.1,41.1,-100.00,East,90,2.9,5.8,76,0.00,,,0.00,,2013-01-06 10:38:00,
2013-01-06 04:43:00,48.1,41.2,-100.00,East,90,3.1,5.8,76,0.00,,,0.00,,2013-01-06 10:43:00,
2013-01-06 04:48:00,47.9,41.4,-100.00,ENE,67,2.8,5.5,78,0.00,,,0.00,,2013-01-06 10:48:00,
2013-01-06 04:53:00,47.8,41.5,-100.00,ENE,67,3.2,6.6,78,0.00,,,0.00,,2013-01-06 10:53:00,
2013-01-06 04:58:00,47.9,41.6,-100.00,ENE,67,2.7,5.5,78,0.00,,,0.00,,2013-01-06 10:58:00,
2013-01-06 05:03:00,47.8,41.5,-100.00,ENE,67,3.0,7.2,78,0.00,,,0.00,,2013-01-06 11:03:00,
2013-01-06 05:08:00,47.9,41.9,-100.00,NE,45,3.6,7.2,79,0.00,,,0.00,,2013-01-06 11:08:00,
2013-01-06 05:13:00,47.6,41.9,-100.00,NE,45,3.6,6.4,80,0.00,,,0.00,,2013-01-06 11:13:00,
2013-01-06 05:18:00,47.8,42.6,-100.00,NNE,22,3.6,6.4,82,0.00,,,0.00,,2013-01-06 11:18:00,
2013-01-06 05:23:00,47.8,42.4,-100.00,ENE,67,3.1,5.5,81,0.00,,,0.00,,2013-01-06 11:23:00,
2013-01-06 05:28:00,47.6,42.9,-100.00,ENE,67,3.2,7.0,83,0.00,,,0.00,,2013-01-06 11:28:00,
2013-01-06 05:33:00,47.4,42.6,-100.00,ENE,67,3.6,7.0,83,0.00,,,0.00,,2013-01-06 11:33:00,
2013-01-06 05:38:00,47.3,42.6,-100.00,ENE,67,3.6,6.4,83,0.00,,,0.00,,2013-01-06 11:38:00,
2013-01-06 05:43:00,47.3,42.8,-100.00,East,90,3.8,8.3,84,0.00,,,0.00,,2013-01-06 11:43:00,
2013-01-06 05:48:00,47.1,42.8,-100.00,NE,45,4.0,8.3,84,0.00,,,0.00,,2013-01-06 11:48:00,
2013-01-06 05:53:00,47.0,42.7,-100.00,NE,45,4.6,10.7,85,0.00,,,0.00,,2013-01-06 11:53:00,
2013-01-06 05:58:00,47.0,43.1,-100.00,ENE,67,4.5,10.7,86,0.00,,,0.00,,2013-01-06 11:58:00,
2013-01-06 06:03:00,47.0,43.3,-100.00,SE,135,3.3,6.7,86,0.00,,,0.00,,2013-01-06 12:03:00,
2013-01-06 06:08:00,46.7,43.2,-100.00,SE,135,3.8,8.2,87,0.00,,,0.00,,2013-01-06 12:08:00,
2013-01-06 06:13:00,46.6,43.5,-100.00,SE,135,3.8,8.7,88,0.00,,,0.00,,2013-01-06 12:13:00,
2013-01-06 06:18:00,46.5,43.5,-100.00,SSE,157,4.0,8.7,89,0.00,,,0.00,,2013-01-06 12:18:00,
2013-01-06 06:23:00,46.4,43.8,-100.00,South,180,3.7,8.5,90,0.00,,,0.00,,2013-01-06 12:23:00,
2013-01-06 06:28:00,46.1,43.4,-100.00,South,180,4.4,8.9,90,0.00,,,0.00,,2013-01-06 12:28:00,
2013-01-06 06:33:00,46.0,43.4,-100.00,South,180,4.6,8.9,90,0.00,,,0.00,,2013-01-06 12:33:00,
2013-01-06 06:38:00,45.8,43.5,-100.00,SSE,157,3.9,8.3,91,0.00,,,0.00,,2013-01-06 12:38:00,
2013-01-06 06:43:00,45.5,43.8,-100.00,SE,135,4.8,9.2,93,0.00,,,0.00,,2013-01-06 12:43:00,
2013-01-06 06:49:00,45.4,43.8,-100.00,SE,135,5.2,9.8,94,0.00,,,0.00,,2013-01-06 12:49:00,
2013-01-06 06:54:00,45.3,43.2,-100.00,SE,135,5.1,9.8,92,0.00,,,0.00,,2013-01-06 12:54:00,
2013-01-06 06:59:00,45.2,43.2,-100.00,ESE,112,4.6,8.7,92,0.00,,,0.00,,2013-01-06 12:59:00,
2013-01-06 07:04:00,45.2,43.2,-100.00,East,90,4.1,11.4,92,0.00,,,0.00,,2013-01-06 13:04:00,
2013-01-06 07:09:00,45.2,43.0,-100.00,East,90,4.2,11.4,91,0.00,,,0.00,,2013-01-06 13:09:00,
2013-01-06 07:14:00,45.2,43.1,-100.00,NE,45,5.0,9.9,92,0.00,,,0.00,,2013-01-06 13:14:00,
2013-01-06 07:19:00,45.0,42.9,-100.00,NE,45,4.7,9.7,92,0.00,,,0.00,,2013-01-06 13:19:00,
2013-01-06 07:24:00,45.2,42.9,-100.00,NE,45,5.1,9.7,91,0.00,,,0.00,,2013-01-06 13:24:00,
2013-01-06 07:29:00,45.3,42.9,-100.00,NE,45,4.9,9.7,91,0.00,,,0.00,,2013-01-06 13:29:00,
2013-01-06 07:34:00,45.4,43.0,-100.00,ENE,67,4.9,8.9,91,0.00,,,0.00,,2013-01-06 13:34:00,
2013-01-06 07:39:00,45.4,43.0,-100.00,ESE,112,4.1,8.9,91,0.00,,,0.00,,2013-01-06 13:39:00,
2013-01-06 07:44:00,45.4,42.9,-100.00,South,180,4.4,8.7,90,0.00,,,0.00,,2013-01-06 13:44:00,
2013-01-06 07:49:00,45.4,43.0,-100.00,SSE,157,4.2,7.4,91,0.00,,,0.00,,2013-01-06 13:49:00,
2013-01-06 07:54:00,45.2,43.1,-100.00,SE,135,3.5,7.0,92,0.00,,,0.00,,2013-01-06 13:54:00,
2013-01-06 07:59:00,44.9,43.4,-100.00,South,180,3.5,6.1,94,0.01,,,0.01,,2013-01-06 13:59:00,
2013-01-06 08:04:00,44.7,43.0,-100.00,South,180,4.3,8.1,93,0.02,,,0.02,,2013-01-06 14:04:00,
2013-01-06 08:09:00,44.7,43.1,-100.00,South,180,5.0,9.4,93,0.02,,,0.02,,2013-01-06 14:09:00,
2013-01-06 08:14:00,44.6,43.3,-100.00,South,180,4.8,8.7,95,0.02,,,0.02,,2013-01-06 14:14:00,
2013-01-06 08:19:00,44.6,43.3,-100.00,SSE,157,4.6,8.7,95,0.02,,,0.02,,2013-01-06 14:19:00,
2013-01-06 08:24:00,44.6,43.3,-100.00,ESE,112,4.5,8.3,95,0.02,,,0.02,,2013-01-06 14:24:00,
2013-01-06 08:29:00,44.5,43.1,-100.00,SE,135,4.1,8.3,94,0.03,,,0.03,,2013-01-06 14:29:00,
2013-01-06 08:34:00,44.6,43.5,-100.00,ENE,67,4.2,7.4,95,0.03,,,0.03,,2013-01-06 14:34:00,
2013-01-06 08:39:00,44.6,43.4,-100.00,NNE,22,4.2,7.8,95,0.03,,,0.03,,2013-01-06 14:39:00,
2013-01-06 08:44:00,44.5,43.4,-100.00,East,90,4.5,9.6,95,0.04,,,0.04,,2013-01-06 14:44:00,
2013-01-06 08:49:00,44.6,43.5,-100.00,East,90,4.7,9.6,95,0.06,,,0.06,,2013-01-06 14:49:00,
2013-01-06 08:54:00,44.7,43.7,-100.00,South,180,4.2,9.3,96,0.07,,,0.08,,2013-01-06 14:54:00,
2013-01-06 08:59:00,44.7,43.6,-100.00,South,180,3.6,7.8,95,0.08,,,0.09,,2013-01-06 14:59:00,
2013-01-06 09:04:00,44.7,43.8,-100.00,SE,135,3.9,9.2,96,0.08,,,0.10,,2013-01-06 15:04:00,
2013-01-06 09:09:00,44.7,43.6,-100.00,ESE,112,4.2,7.6,95,0.08,,,0.10,,2013-01-06 15:09:00,
2013-01-06 09:14:00,44.9,44.1,-100.00,ESE,112,4.7,9.1,96,0.08,,,0.10,,2013-01-06 15:14:00,
2013-01-06 09:19:00,44.9,43.8,-100.00,SE,135,4.8,9.1,95,0.08,,,0.10,,2013-01-06 15:19:00,
2013-01-06 09:24:00,45.0,44.0,-100.00,SSE,157,4.8,9.2,95,0.08,,,0.10,,2013-01-06 15:24:00,
2013-01-06 09:30:00,45.2,44.1,-100.00,SSE,157,3.8,7.6,95,0.08,,,0.11,,2013-01-06 15:30:00,
2013-01-06 09:34:00,45.0,43.9,-100.00,ESE,112,3.5,6.6,95,0.08,,,0.11,,2013-01-06 15:34:00,
2013-01-06 09:40:00,45.2,43.9,-100.00,NE,45,3.8,6.6,95,0.09,,,0.12,,2013-01-06 15:40:00,
2013-01-06 09:45:00,45.2,44.2,-100.00,NE,45,3.4,7.0,96,0.09,,,0.13,,2013-01-06 15:45:00,
2013-01-06 09:50:00,45.4,44.4,-100.00,ENE,67,3.4,7.0,96,0.08,,,0.14,,2013-01-06 15:50:00,
2013-01-06 09:55:00,45.4,44.3,-100.00,SSE,157,3.4,8.2,95,0.07,,,0.15,,2013-01-06 15:55:00,
2013-01-06 10:00:00,45.3,44.1,-100.00,ESE,112,3.5,7.3,95,0.06,,,0.15,,2013-01-06 16:00:00,
2013-01-06 10:05:00,45.4,44.3,-100.00,SE,135,3.9,7.3,95,0.05,,,0.15,,2013-01-06 16:05:00,
2013-01-06 10:10:00,45.4,44.2,-100.00,ESE,112,4.3,8.7,95,0.05,,,0.15,,2013-01-06 16:10:00,
2013-01-06 10:15:00,45.7,45.0,-100.00,SE,135,3.2,7.2,97,0.05,,,0.15,,2013-01-06 16:15:00,
2013-01-06 10:20:00,45.5,44.4,-100.00,SSE,157,3.0,6.8,95,0.05,,,0.15,,2013-01-06 16:20:00,
2013-01-06 10:25:00,45.7,44.7,-100.00,East,90,3.5,9.2,95,0.05,,,0.15,,2013-01-06 16:25:00,
2013-01-06 10:30:00,45.8,45.1,-100.00,NE,45,3.7,9.2,97,0.05,,,0.16,,2013-01-06 16:30:00,
2013-01-06 10:35:00,45.7,44.4,-100.00,ENE,67,3.8,8.1,95,0.05,,,0.16,,2013-01-06 16:35:00,
2013-01-06 10:40:00,46.1,44.9,-100.00,ENE,67,4.3,8.1,95,0.04,,,0.16,,2013-01-06 16:40:00,
2013-01-06 10:45:00,46.2,45.0,-100.00,East,90,4.5,8.5,95,0.03,,,0.16,,2013-01-06 16:45:00,
2013-01-06 10:50:00,46.2,44.9,-100.00,ENE,67,3.7,7.2,95,0.02,,,0.16,,2013-01-06 16:50:00,
2013-01-06 10:55:00,46.2,45.0,-100.00,NE,45,4.5,8.3,95,0.01,,,0.16,,2013-01-06 16:55:00,
2013-01-06 11:00:00,46.5,45.2,-100.00,ENE,67,3.8,8.3,95,0.01,,,0.16,,2013-01-06 17:00:00,
2013-01-06 11:05:00,46.4,45.2,-100.00,East,90,3.5,6.4,95,0.01,,,0.16,,2013-01-06 17:05:00,
2013-01-06 11:10:00,46.6,45.3,-100.00,SE,135,3.4,6.7,95,0.01,,,0.16,,2013-01-06 17:10:00,
2013-01-06 11:15:00,46.7,45.4,-100.00,ESE,112,2.9,5.6,95,0.01,,,0.16,,2013-01-06 17:15:00,
2013-01-06 11:20:00,46.7,45.4,-100.00,ENE,67,3.0,7.8,95,0.01,,,0.16,,2013-01-06 17:20:00,
2013-01-06 11:25:00,47.0,45.7,-100.00,ESE,112,3.8,7.8,95,0.01,,,0.16,,2013-01-06 17:25:00,
2013-01-06 11:30:00,47.3,46.1,-100.00,East,90,3.4,6.5,95,0.00,,,0.16,,2013-01-06 17:30:00,
2013-01-06 11:35:00,47.1,45.9,-100.00,ESE,112,3.5,7.4,95,0.00,,,0.16,,2013-01-06 17:35:00,
2013-01-06 11:40:00,47.3,45.9,-100.00,SE,135,3.1,7.4,94,0.00,,,0.16,,2013-01-06 17:40:00,
2013-01-06 11:46:00,47.8,46.3,-100.00,SE,135,2.3,5.4,94,0.00,,,0.16,,2013-01-06 17:46:00,
2013-01-06 11:51:00,47.9,46.3,-100.00,SE,135,3.1,7.3,94,0.00,,,0.16,,2013-01-06 17:51:00,
2013-01-06 11:56:00,47.8,46.6,-100.00,SSE,157,2.6,7.3,95,0.00,,,0.16,,2013-01-06 17:56:00,
2013-01-06 12:01:00,47.5,46.1,-100.00,SE,135,2.9,6.0,94,0.00,,,0.16,,2013-01-06 18:01:00,
2013-01-06 12:06:00,47.6,46.9,-100.00,ESE,112,3.4,6.0,97,0.00,,,0.16,,2013-01-06 18:06:00,
2013-01-06 12:11:00,47.6,46.4,-100.00,ESE,112,3.0,5.3,95,0.00,,,0.16,,2013-01-06 18:11:00,
2013-01-06 12:16:00,47.6,46.2,-100.00,SE,135,3.1,6.7,94,0.01,,,0.17,,2013-01-06 18:16:00,
2013-01-06 12:21:00,47.9,47.0,-100.00,ESE,112,3.3,6.7,96,0.01,,,0.17,,2013-01-06 18:21:00,
2013-01-06 12:26:00,47.9,46.5,-100.00,ESE,112,3.6,7.7,94,0.01,,,0.17,,2013-01-06 18:26:00,
2013-01-06 12:31:00,48.0,46.6,-100.00,ESE,112,4.0,7.7,94,0.01,,,0.17,,2013-01-06 18:31:00,
2013-01-06 12:36:00,47.8,46.3,-100.00,ESE,112,3.8,7.1,94,0.01,,,0.17,,2013-01-06 18:36:00,
2013-01-06 12:41:00,48.4,47.7,-100.00,ESE,112,3.5,7.1,97,0.01,,,0.17,,2013-01-06 18:41:00,
2013-01-06 12:46:00,48.3,46.8,-100.00,SE,135,3.1,7.0,94,0.01,,,0.17,,2013-01-06 18:46:00,
2013-01-06 12:51:00,48.4,46.8,-100.00,SE,135,3.4,7.0,93,0.01,,,0.17,,2013-01-06 18:51:00,
2013-01-06 12:56:00,48.4,46.7,-100.00,SE,135,3.4,8.1,93,0.01,,,0.17,,2013-01-06 18:56:00,
2013-01-06 13:01:00,48.7,46.8,-100.00,SSE,157,3.4,5.7,93,0.01,,,0.17,,2013-01-06 19:01:00,
2013-01-06 13:06:00,48.5,46.5,-100.00,ESE,112,3.5,7.3,92,0.01,,,0.17,,2013-01-06 19:06:00,
2013-01-06 13:11:00,48.5,46.5,-100.00,ESE,112,3.5,7.3,92,0.01,,,0.17,,2013-01-06 19:11:00,
2013-01-06 13:17:00,48.5,46.2,-100.00,East,90,4.1,6.8,91,0.00,,,0.17,,2013-01-06 19:17:00,
2013-01-06 13:22:00,49.3,47.3,-100.00,ENE,67,3.5,6.8,92,0.00,,,0.17,,2013-01-06 19:22:00,
2013-01-06 13:27:00,49.0,47.0,-100.00,East,90,2.9,6.6,92,0.00,,,0.17,,2013-01-06 19:27:00,
2013-01-06 13:32:00,48.9,46.6,-100.00,ESE,112,3.8,7.7,91,0.00,,,0.17,,2013-01-06 19:32:00,
2013-01-06 13:37:00,48.9,46.6,-100.00,SE,135,4.2,8.8,91,0.00,,,0.17,,2013-01-06 19:37:00,
2013-01-06 13:47:00,49.3,47.2,-100.00,ESE,112,3.0,6.3,92,0.00,,,0.17,,2013-01-06 19:47:00,
2013-01-06 13:53:00,49.0,46.2,-100.00,ESE,112,3.7,7.8,89,0.00,,,0.17,,2013-01-06 19:53:00,
2013-01-06 13:58:00,49.2,46.9,-100.00,ESE,112,3.9,7.8,91,0.00,,,0.17,,2013-01-06 19:58:00,
2013-01-06 14:03:00,49.0,46.4,-100.00,ESE,112,3.7,7.8,90,0.00,,,0.17,,2013-01-06 20:03:00,
2013-01-06 14:08:00,49.4,47.2,-100.00,SE,135,3.5,8.0,91,0.00,,,0.17,,2013-01-06 20:08:00,
2013-01-06 14:11:00,49.3,47.1,-100.00,ESE,112,3.4,8.0,91,0.00,,,0.17,,2013-01-06 20:11:00,
2013-01-06 14:13:00,49.4,46.9,-100.00,ESE,112,3.3,8.0,90,0.00,,,0.17,,2013-01-06 20:13:00,
2013-01-06 14:18:00,49.4,47.0,-100.00,East,90,2.8,6.5,91,0.00,,,0.17,,2013-01-06 20:18:00,
2013-01-06 14:23:00,49.8,47.2,-100.00,ESE,112,2.1,5.4,90,0.00,,,0.17,,2013-01-06 20:23:00,
2013-01-06 14:28:00,49.8,47.1,-100.00,SSE,157,1.6,3.5,90,0.00,,,0.17,,2013-01-06 20:28:00,
2013-01-06 14:33:00,50.0,47.3,-100.00,East,90,2.0,4.5,90,0.00,,,0.17,,2013-01-06 20:33:00,
2013-01-06 14:38:00,50.0,47.2,-100.00,ESE,112,2.3,4.5,90,0.00,,,0.17,,2013-01-06 20:38:00,
2013-01-06 14:43:00,50.0,47.3,-100.00,SSE,157,2.2,4.1,90,0.00,,,0.17,,2013-01-06 20:43:00,
2013-01-06 14:50:00,50.0,47.2,-100.00,SSE,157,2.3,4.3,89,0.00,,,0.17,,2013-01-06 20:50:00,
2013-01-06 14:55:00,50.0,47.3,-100.00,SE,135,2.7,5.8,90,0.00,,,0.17,,2013-01-06 20:55:00,
2013-01-06 15:00:00,50.1,47.3,-100.00,SSE,157,2.7,5.8,89,0.00,,,0.17,,2013-01-06 21:00:00,
2013-01-06 15:05:00,50.2,47.3,-100.00,ESE,112,2.4,4.5,89,0.00,,,0.17,,2013-01-06 21:05:00,
2013-01-06 15:10:00,50.2,47.3,-100.00,SE,135,2.7,4.5,89,0.00,,,0.17,,2013-01-06 21:10:00,
2013-01-06 15:15:00,50.3,47.5,-100.00,SSE,157,2.7,5.3,89,0.00,,,0.17,,2013-01-06 21:15:00,
2013-01-06 15:20:00,50.3,47.8,-100.00,ESE,112,3.5,5.8,90,0.00,,,0.17,,2013-01-06 21:20:00,
2013-01-06 15:25:00,50.6,47.5,-100.00,ESE,112,3.3,5.8,89,0.00,,,0.17,,2013-01-06 21:25:00,
2013-01-06 15:30:00,50.6,47.0,-100.00,SE,135,2.6,5.3,87,0.00,,,0.17,,2013-01-06 21:30:00,
2013-01-06 15:35:00,50.7,47.5,-100.00,ESE,112,3.1,6.0,88,0.00,,,0.17,,2013-01-06 21:35:00,
2013-01-06 15:40:00,50.8,47.5,-100.00,South,180,3.3,6.0,88,0.00,,,0.17,,2013-01-06 21:40:00,
2013-01-06 15:45:00,51.1,48.4,-100.00,SSE,157,3.4,6.5,90,0.00,,,0.17,,2013-01-06 21:45:00,
2013-01-06 15:50:00,51.1,47.5,-100.00,SE,135,3.8,6.7,87,0.00,,,0.17,,2013-01-06 21:50:00,
2013-01-06 15:55:00,51.1,47.4,-100.00,South,180,4.3,6.8,87,0.00,,,0.17,,2013-01-06 21:55:00,
2013-01-06 16:00:00,51.0,47.2,-100.00,SE,135,3.5,6.6,86,0.00,,,0.17,,2013-01-06 22:00:00,
2013-01-06 16:05:00,51.0,47.4,-100.00,ESE,112,3.6,5.8,87,0.00,,,0.17,,2013-01-06 22:05:00,
2013-01-06 16:10:00,50.9,47.0,-100.00,SE,135,3.3,5.8,86,0.00,,,0.17,,2013-01-06 22:10:00,
2013-01-06 16:16:00,50.8,46.9,-100.00,SE,135,3.1,7.3,86,0.00,,,0.17,,2013-01-06 22:16:00,
2013-01-06 16:21:00,50.8,46.9,-100.00,SE,135,4.0,7.3,86,0.00,,,0.17,,2013-01-06 22:21:00,
2013-01-06 16:26:00,50.8,46.7,-100.00,SE,135,3.9,6.7,85,0.00,,,0.17,,2013-01-06 22:26:00,
2013-01-06 16:31:00,50.8,46.7,-100.00,South,180,3.7,6.7,85,0.00,,,0.17,,2013-01-06 22:31:00,
2013-01-06 16:36:00,50.7,46.5,-100.00,ESE,112,3.7,6.2,85,0.00,,,0.17,,2013-01-06 22:36:00,
2013-01-06 16:41:00,50.7,46.5,-100.00,ESE,112,3.3,5.9,85,0.00,,,0.17,,2013-01-06 22:41:00,
2013-01-06 16:46:00,50.7,46.5,-100.00,SE,135,2.7,4.4,85,0.00,,,0.17,,2013-01-06 22:46:00,
2013-01-06 16:51:00,50.6,46.7,-100.00,SSE,157,2.8,6.4,86,0.00,,,0.17,,2013-01-06 22:51:00,
2013-01-06 16:56:00,50.6,46.7,-100.00,SE,135,2.9,6.4,86,0.00,,,0.17,,2013-01-06 22:56:00,
2013-01-06 17:01:00,50.6,46.4,-100.00,ESE,112,2.2,4.5,85,0.00,,,0.17,,2013-01-06 23:01:00,
2013-01-06 17:06:00,50.6,46.7,-100.00,SE,135,1.7,3.4,86,0.00,,,0.17,,2013-01-06 23:06:00,
2013-01-06 17:11:00,50.6,46.8,-100.00,SSE,157,1.9,3.8,86,0.00,,,0.17,,2013-01-06 23:11:00,
2013-01-06 17:16:00,50.5,46.6,-100.00,SSE,157,1.9,3.8,86,0.00,,,0.17,,2013-01-06 23:16:00,
2013-01-06 17:21:00,50.5,46.6,-100.00,South,180,2.2,4.8,86,0.00,,,0.17,,2013-01-06 23:21:00,
2013-01-06 17:26:00,50.3,46.5,-100.00,SSW,202,2.1,4.8,86,0.00,,,0.17,,2013-01-06 23:26:00,
2013-01-06 17:31:00,50.2,45.8,-100.00,SSW,202,2.6,6.0,84,0.00,,,0.17,,2013-01-06 23:31:00,
2013-01-06 17:36:00,50.1,46.2,-100.00,South,180,2.4,6.0,86,0.00,,,0.17,,2013-01-06 23:36:00,
2013-01-06 17:41:00,50.0,46.3,-100.00,SSE,157,1.8,4.9,86,0.00,,,0.17,,2013-01-06 23:41:00,
2013-01-06 17:46:00,49.8,45.4,-100.00,SE,135,2.0,4.9,84,0.00,,,0.17,,2013-01-06 23:46:00,
2013-01-06 17:51:00,49.5,45.9,-100.00,SSE,157,1.5,3.3,87,0.00,,,0.17,,2013-01-06 23:51:00,
2013-01-06 17:56:00,49.3,45.8,-100.00,ESE,112,1.4,3.5,87,0.00,,,0.17,,2013-01-06 23:56:00,
2013-01-06 18:01:00,49.2,45.8,-100.00,ESE,112,1.7,3.6,88,0.00,,,0.17,,2013-01-07 00:01:00,
2013-01-06 18:07:00,49.1,45.7,-100.00,SSE,157,1.2,3.4,88,0.00,,,0.17,,2013-01-07 00:07:00,
2013-01-06 18:12:00,48.9,45.6,-100.00,SSE,157,0.7,2.1,88,0.00,,,0.17,,2013-01-07 00:12:00,
2013-01-06 18:17:00,48.8,45.7,-100.00,SSE,157,0.8,2.1,88,0.00,,,0.17,,2013-01-07 00:17:00,
2013-01-06 18:22:00,48.7,45.6,-100.00,SSE,157,0.8,1.9,88,0.00,,,0.17,,2013-01-07 00:22:00,
2013-01-06 18:27:00,48.5,45.6,-100.00,SSW,202,1.0,2.3,89,0.00,,,0.17,,2013-01-07 00:27:00,
2013-01-06 18:32:00,48.5,45.7,-100.00,SSW,202,1.2,2.7,89,0.00,,,0.17,,2013-01-07 00:32:00,
2013-01-06 18:37:00,48.7,45.8,-100.00,SSW,202,1.1,2.7,89,0.00,,,0.17,,2013-01-07 00:37:00,
2013-01-06 18:42:00,48.7,45.9,-100.00,SSW,202,1.1,2.7,90,0.00,,,0.17,,2013-01-07 00:42:00,
2013-01-06 18:47:00,48.8,46.0,-100.00,South,180,1.0,2.5,90,0.00,,,0.17,,2013-01-07 00:47:00,
2013-01-06 18:53:00,48.8,45.9,-100.00,SSE,157,1.0,2.2,89,0.00,,,0.17,,2013-01-07 00:53:00,
2013-01-06 18:58:00,48.9,46.1,-100.00,South,180,1.6,3.7,89,0.00,,,0.17,,2013-01-07 00:58:00,
2013-01-06 19:03:00,49.0,46.2,-100.00,South,180,1.7,3.7,89,0.00,,,0.17,,2013-01-07 01:03:00,
2013-01-06 19:08:00,49.1,46.1,-100.00,SSE,157,2.2,4.6,89,0.00,,,0.17,,2013-01-07 01:08:00,
2013-01-06 19:13:00,49.2,46.0,-100.00,SSE,157,2.5,4.6,88,0.00,,,0.17,,2013-01-07 01:13:00,
2013-01-06 19:18:00,49.2,45.7,-100.00,South,180,2.4,4.3,87,0.00,,,0.17,,2013-01-07 01:18:00,
2013-01-06 19:23:00,49.3,45.7,-100.00,SSE,157,2.5,4.4,87,0.00,,,0.17,,2013-01-07 01:23:00,
2013-01-06 19:28:00,49.3,45.4,-100.00,SE,135,2.5,4.5,86,0.00,,,0.17,,2013-01-07 01:28:00,
2013-01-06 19:33:00,49.2,45.4,-100.00,SSE,157,2.3,5.1,86,0.00,,,0.17,,2013-01-07 01:33:00,
2013-01-06 19:38:00,49.1,45.2,-100.00,SSE,157,2.3,3.9,86,0.00,,,0.17,,2013-01-07 01:38:00,
2013-01-06 19:43:00,48.9,44.7,-100.00,SSE,157,2.8,7.2,85,0.00,,,0.17,,2013-01-07 01:43:00,
2013-01-06 19:48:00,48.7,44.6,-100.00,SSE,157,3.2,7.2,85,0.00,,,0.17,,2013-01-07 01:48:00,
2013-01-06 19:53:00,48.4,44.5,-100.00,SSE,157,2.6,4.9,86,0.00,,,0.17,,2013-01-07 01:53:00,
2013-01-06 19:58:00,48.2,44.5,-100.00,SSE,157,2.3,4.0,86,0.00,,,0.17,,2013-01-07 01:58:00,
2013-01-06 20:03:00,48.0,44.4,-100.00,SSE,157,2.2,4.2,87,0.00,,,0.17,,2013-01-07 02:03:00,
2013-01-06 20:08:00,47.8,44.5,-100.00,SSE,157,1.9,4.2,88,0.00,,,0.17,,2013-01-07 02:08:00,
2013-01-06 20:13:00,47.6,44.2,-100.00,South,180,1.8,3.3,87,0.00,,,0.17,,2013-01-07 02:13:00,
2013-01-06 20:18:00,47.4,44.3,-100.00,SSW,202,1.7,3.2,88,0.00,,,0.17,,2013-01-07 02:18:00,
2013-01-06 20:23:00,47.3,43.9,-100.00,SSE,157,1.8,4.3,87,0.00,,,0.17,,2013-01-07 02:23:00,
2013-01-06 20:28:00,47.1,43.9,-100.00,ESE,112,2.3,4.9,88,0.00,,,0.17,,2013-01-07 02:28:00,
2013-01-06 20:33:00,47.0,44.1,-100.00,SE,135,2.0,4.0,89,0.00,,,0.17,,2013-01-07 02:33:00,
2013-01-06 20:38:00,47.0,44.0,-100.00,ESE,112,2.0,4.6,89,0.00,,,0.17,,2013-01-07 02:38:00,
2013-01-06 20:44:00,46.8,44.0,-100.00,SE,135,1.9,4.3,89,0.00,,,0.17,,2013-01-07 02:44:00,
2013-01-06 20:49:00,46.6,43.8,-100.00,South,180,1.8,4.3,89,0.00,,,0.17,,2013-01-07 02:49:00,
2013-01-06 20:54:00,46.6,43.6,-100.00,South,180,1.5,3.0,89,0.00,,,0.17,,2013-01-07 02:54:00,
2013-01-06 20:59:00,46.5,43.6,-100.00,South,180,1.8,3.4,89,0.00,,,0.17,,2013-01-07 02:59:00,
2013-01-06 21:04:00,46.5,43.8,-100.00,SSE,157,1.8,3.4,90,0.00,,,0.17,,2013-01-07 03:04:00,
2013-01-06 21:09:00,46.3,43.5,-100.00,SSE,157,1.7,3.9,89,0.00,,,0.17,,2013-01-07 03:09:00,
2013-01-06 21:14:00,46.2,43.4,-100.00,SSE,157,1.7,3.9,90,0.00,,,0.17,,2013-01-07 03:14:00,
2013-01-06 21:19:00,46.1,43.4,-100.00,SE,135,1.2,3.0,90,0.00,,,0.17,,2013-01-07 03:19:00,
2013-01-06 21:24:00,46.1,43.4,-100.00,SSE,157,1.2,2.7,90,0.00,,,0.17,,2013-01-07 03:24:00,
2013-01-06 21:29:00,46.0,43.2,-100.00,East,90,1.2,2.2,90,0.00,,,0.17,,2013-01-07 03:29:00,
2013-01-06 21:34:00,45.8,43.2,-100.00,NNE,22,1.0,2.3,90,0.00,,,0.17,,2013-01-07 03:34:00,
2013-01-06 21:39:00,45.6,43.1,-100.00,NNE,22,1.1,2.3,90,0.00,,,0.17,,2013-01-07 03:39:00,
2013-01-06 21:44:00,45.3,42.9,-100.00,NW,315,0.8,1.8,91,0.00,,,0.17,,2013-01-07 03:44:00,
2013-01-06 21:49:00,45.2,43.1,-100.00,NW,315,0.8,1.8,92,0.00,,,0.17,,2013-01-07 03:49:00,
2013-01-06 21:54:00,45.2,43.1,-100.00,NW,315,0.5,1.5,92,0.00,,,0.17,,2013-01-07 03:54:00,
2013-01-06 21:59:00,45.0,43.1,-100.00,West,270,0.2,1.0,92,0.00,,,0.17,,2013-01-07 03:59:00,
2013-01-06 22:04:00,44.9,42.9,-100.00,NW,315,0.2,1.0,92,0.00,,,0.17,,2013-01-07 04:04:00,
2013-01-06 22:09:00,44.9,43.1,-100.00,SE,135,0.6,1.2,93,0.00,,,0.17,,2013-01-07 04:09:00,
2013-01-06 22:14:00,44.8,42.9,-100.00,SW,225,0.9,2.1,93,0.00,,,0.17,,2013-01-07 04:14:00,
2013-01-06 22:19:00,44.6,42.8,-100.00,SW,225,0.9,2.1,93,0.00,,,0.17,,2013-01-07 04:19:00,
2013-01-06 22:24:00,44.4,42.5,-100.00,SW,225,1.0,2.1,93,0.00,,,0.17,,2013-01-07 04:24:00,
2013-01-06 22:29:00,44.4,42.6,-100.00,SSW,202,1.0,2.4,93,0.00,,,0.17,,2013-01-07 04:29:00,
2013-01-06 22:34:00,44.4,42.6,-100.00,South,180,1.0,2.4,93,0.00,,,0.17,,2013-01-07 04:34:00,
2013-01-06 22:39:00,44.3,42.5,-100.00,SSE,157,1.0,2.5,93,0.00,,,0.17,,2013-01-07 04:39:00,
2013-01-06 22:44:00,44.2,42.5,-100.00,SSE,157,0.9,2.5,93,0.00,,,0.17,,2013-01-07 04:44:00,
2013-01-06 22:49:00,44.0,42.4,-100.00,NNE,22,0.5,1.8,93,0.00,,,0.17,,2013-01-07 04:49:00,
2013-01-06 22:54:00,44.0,42.4,-100.00,ESE,112,0.6,1.9,93,0.00,,,0.17,,2013-01-07 04:54:00,
2013-01-06 22:59:00,43.9,42.3,-100.00,SW,225,1.0,1.9,93,0.00,,,0.17,,2013-01-07 04:59:00,
2013-01-06 23:00:00,43.9,42.3,-100.00,SW,225,1.0,1.9,93,0.00,,,0.17,,2013-01-07 05:00:00,
2013-01-06 23:01:00,43.9,42.3,-100.00,SW,225,1.0,1.9,93,0.00,,,0.17,,2013-01-07 05:01:00,
2013-01-06 23:02:00,43.8,42.2,-100.00,SW,225,1.0,1.9,93,0.00,,,0.17,,2013-01-07 05:02:00,
2013-01-06 23:07:00,43.8,42.2,-100.00,SW,225,1.0,2.2,93,0.00,,,0.17,,2013-01-07 05:07:00,
2013-01-06 23:12:00,43.7,42.2,-100.00,South,180,1.0,2.4,94,0.00,,,0.17,,2013-01-07 05:12:00,
2013-01-06 23:17:00,43.6,42.1,-100.00,SSE,157,1.0,2.4,94,0.00,,,0.17,,2013-01-07 05:17:00,
2013-01-06 23:22:00,43.5,42.1,-100.00,SSE,157,1.2,2.6,94,0.00,,,0.17,,2013-01-07 05:22:00,
2013-01-06 23:27:00,43.4,41.9,-100.00,SSE,157,1.4,2.6,94,0.00,,,0.17,,2013-01-07 05:27:00,
2013-01-06 23:32:00,43.4,41.8,-100.00,SE,135,1.1,2.4,94,0.00,,,0.17,,2013-01-07 05:32:00,
2013-01-06 23:37:00,43.4,41.9,-100.00,SE,135,1.1,2.2,94,0.00,,,0.17,,2013-01-07 05:37:00,
2013-01-06 23:42:00,43.4,41.8,-100.00,ESE,112,1.1,3.4,94,0.00,,,0.17,,2013-01-07 05:42:00,
2013-01-06 23:47:00,43.2,41.7,-100.00,SSE,157,1.2,3.4,94,0.00,,,0.17,,2013-01-07 05:47:00,
2013-01-06 23:52:00,43.2,41.7,-100.00,SSW,202,1.2,2.1,94,0.00,,,0.17,,2013-01-07 05:52:00,
2013-01-06 23:57:00,43.1,41.1,-100.00,SSW,202,1.4,2.4,92,0.00,,,0.17,,2013-01-07 05:57:00,